Time;durP1;ratioP1;P1;durP2;ratioP2;P2;SDS_P1;SDS_P2;PMS_P1;PMS_P2;Temp;Humidity;BMP_temperature;BMP_pressure;BME280_temperature;BME280_humidity;BME280_pressure;Samples;Min_cycle;Max_cycle;Signal;HPM_P1;HPM_P2
2023/06/16 00:01:05;;;;;;;8.30;3.17;;;;;;;;;;5028014;28;20032;-77
2023/06/16 00:03:35;;;;;;;5.47;3.05;;;;;;;;;;5028921;28;20091;-76
2023/06/16 00:06:03;;;;;;;18.77;12.55;;;;;;;;;;5038092;28;20490;-78
2023/06/16 00:08:33;;;;;;;6.50;2.97;;;;;;;;;;5044669;28;20479;-81
2023/06/16 00:10:59;;;;;;;5.47;2.80;;;;;;;;;;5004952;28;20124;-80
2023/06/16 00:13:25;;;;;;;6.13;3.63;;;;;;;;;;5027566;28;20382;-80
2023/06/16 00:15:51;;;;;;;4.00;2.65;;;;;;;;;;5017477;28;20499;-81
2023/06/16 00:18:17;;;;;;;6.40;3.08;;;;;;;;;;5046095;28;20072;-81
2023/06/16 00:20:43;;;;;;;4.90;2.67;;;;;;;;;;5029540;28;20510;-80
2023/06/16 00:23:16;;;;;;;6.53;2.58;;;;;;;;;;5029101;28;20025;-80
2023/06/16 00:25:42;;;;;;;3.00;2.25;;;;;;;;;;5030513;28;20041;-81
2023/06/16 00:28:08;;;;;;;5.90;2.90;;;;;;;;;;5027271;28;20053;-80
2023/06/16 00:30:34;;;;;;;7.22;3.00;;;;;;;;;;5046161;28;20032;-80
2023/06/16 00:33:00;;;;;;;6.53;3.10;;;;;;;;;;5024186;28;20037;-81
2023/06/16 00:35:26;;;;;;;7.75;2.50;;;;;;;;;;5045438;28;20060;-80
2023/06/16 00:37:52;;;;;;;4.95;2.60;;;;;;;;;;5028290;28;20026;-80
2023/06/16 00:40:18;;;;;;;4.15;2.60;;;;;;;;;;5048298;28;20025;-80
2023/06/16 00:42:44;;;;;;;6.72;2.95;;;;;;;;;;5020851;28;20033;-77
2023/06/16 00:45:10;;;;;;;7.82;3.70;;;;;;;;;;5045165;28;20091;-77
2023/06/16 00:47:36;;;;;;;5.50;3.67;;;;;;;;;;5027384;28;20034;-82
2023/06/16 00:50:03;;;;;;;5.80;3.72;;;;;;;;;;5029297;28;20100;-80
2023/06/16 00:52:35;;;;;;;5.18;3.40;;;;;;;;;;5031750;28;20164;-79
2023/06/16 00:55:01;;;;;;;5.30;3.15;;;;;;;;;;5030508;28;20030;-79
2023/06/16 00:57:27;;;;;;;12.60;4.00;;;;;;;;;;5043803;28;20037;-80
2023/06/16 00:59:53;;;;;;;7.35;3.40;;;;;;;;;;5024876;28;20033;-80
2023/06/16 01:02:20;;;;;;;8.63;3.85;;;;;;;;;;5028957;28;20030;-80
2023/06/16 01:04:47;;;;;;;4.72;3.85;;;;;;;;;;5027744;28;20558;-81
2023/06/16 01:07:20;;;;;;;4.53;3.63;;;;;;;;;;5026301;28;20040;-81
2023/06/16 01:09:55;;;;;;;6.63;4.00;;;;;;;;;;5023531;28;20033;-80
2023/06/16 01:12:24;;;;;;;6.63;4.25;;;;;;;;;;5016732;28;20065;-80
2023/06/16 01:14:50;;;;;;;6.40;4.30;;;;;;;;;;5029266;28;20120;-79
2023/06/16 01:17:17;;;;;;;3.90;3.58;;;;;;;;;;5027758;28;20495;-79
2023/06/16 01:19:45;;;;;;;4.93;3.42;;;;;;;;;;5032060;28;20029;-79
2023/06/16 01:22:20;;;;;;;6.53;3.75;;;;;;;;;;5032252;28;20037;-79
2023/06/16 01:24:47;;;;;;;5.07;3.80;;;;;;;;;;5033243;28;20038;-79
2023/06/16 01:27:17;;;;;;;8.05;4.13;;;;;;;;;;5031519;28;20045;-80
2023/06/16 01:29:46;;;;;;;10.40;5.32;;;;;;;;;;5032523;28;20029;-79
2023/06/16 01:32:14;;;;;;;7.25;4.93;;;;;;;;;;5032896;28;20025;-79
2023/06/16 01:34:40;;;;;;;8.52;5.28;;;;;;;;;;5028368;28;20179;-79
2023/06/16 01:37:07;;;;;;;5.88;4.85;;;;;;;;;;5030483;28;20483;-78
2023/06/16 01:39:34;;;;;;;8.23;4.75;;;;;;;;;;5031631;28;20033;-82
2023/06/16 01:42:01;;;;;;;4.72;4.00;;;;;;;;;;5031984;28;20041;-77
2023/06/16 01:44:28;;;;;;;6.47;4.78;;;;;;;;;;5031399;28;20048;-79
2023/06/16 01:46:54;;;;;;;9.70;4.88;;;;;;;;;;5053604;28;20037;-78
2023/06/16 01:49:20;;;;;;;8.48;4.90;;;;;;;;;;5029531;28;20116;-79
2023/06/16 01:51:46;;;;;;;10.15;5.13;;;;;;;;;;5033295;28;20030;-79
2023/06/16 01:54:12;;;;;;;5.72;4.88;;;;;;;;;;5032903;28;20041;-80
2023/06/16 01:56:38;;;;;;;9.25;5.10;;;;;;;;;;5030906;28;20034;-80
2023/06/16 01:59:05;;;;;;;6.47;5.28;;;;;;;;;;5032151;28;20030;-79
2023/06/16 02:01:31;;;;;;;6.90;5.15;;;;;;;;;;5014701;28;20037;-80
2023/06/16 02:04:02;;;;;;;10.85;5.75;;;;;;;;;;5031000;28;20053;-80
2023/06/16 02:06:31;;;;;;;8.35;4.97;;;;;;;;;;5026324;28;20029;-80
2023/06/16 02:08:58;;;;;;;10.02;5.72;;;;;;;;;;5032904;28;20036;-80
2023/06/16 02:11:26;;;;;;;8.10;4.70;;;;;;;;;;5023919;28;20049;-80
2023/06/16 02:13:53;;;;;;;6.72;4.95;;;;;;;;;;5028760;28;20091;-80
2023/06/16 02:16:20;;;;;;;5.35;4.30;;;;;;;;;;5031895;28;20061;-78
2023/06/16 02:18:49;;;;;;;6.72;5.18;;;;;;;;;;5048265;28;20436;-74
2023/06/16 02:21:16;;;;;;;6.07;5.03;;;;;;;;;;5027366;28;20529;-75
2023/06/16 02:23:42;;;;;;;7.63;5.78;;;;;;;;;;5043527;28;20511;-75
2023/06/16 02:26:08;;;;;;;11.48;6.18;;;;;;;;;;5024258;28;20048;-76
2023/06/16 02:28:34;;;;;;;8.50;5.80;;;;;;;;;;5026276;28;20045;-75
2023/06/16 02:31:00;;;;;;;8.88;5.65;;;;;;;;;;5029281;28;20041;-78
2023/06/16 02:33:26;;;;;;;11.77;6.20;;;;;;;;;;5032777;28;20364;-77
2023/06/16 02:35:52;;;;;;;8.52;6.57;;;;;;;;;;5021445;28;20040;-77
2023/06/16 02:38:18;;;;;;;9.32;6.10;;;;;;;;;;5026261;28;20033;-77
2023/06/16 02:40:44;;;;;;;8.20;6.00;;;;;;;;;;5031379;28;20037;-77
2023/06/16 02:43:10;;;;;;;7.78;6.70;;;;;;;;;;5028319;28;20036;-74
2023/06/16 02:45:36;;;;;;;13.25;8.45;;;;;;;;;;5046769;28;20387;-73
2023/06/16 02:48:02;;;;;;;7.88;6.65;;;;;;;;;;5031112;28;20113;-73
2023/06/16 02:50:28;;;;;;;11.07;7.55;;;;;;;;;;5029715;28;20976;-74
2023/06/16 02:52:55;;;;;;;10.05;7.20;;;;;;;;;;5031110;28;20033;-74
2023/06/16 02:55:21;;;;;;;10.60;7.10;;;;;;;;;;5052736;28;20475;-75
2023/06/16 02:57:47;;;;;;;10.43;7.45;;;;;;;;;;5027223;28;20030;-75
2023/06/16 03:00:13;;;;;;;11.15;7.47;;;;;;;;;;5029652;28;20086;-75
2023/06/16 03:02:40;;;;;;;9.50;7.25;;;;;;;;;;5028310;28;20040;-74
2023/06/16 03:05:06;;;;;;;10.98;7.60;;;;;;;;;;5030728;28;20273;-74
2023/06/16 03:07:34;;;;;;;11.35;8.02;;;;;;;;;;5043445;28;20113;-75
2023/06/16 03:10:00;;;;;;;11.68;8.38;;;;;;;;;;5030826;28;20021;-75
2023/06/16 03:12:26;;;;;;;13.70;9.05;;;;;;;;;;5036501;28;20061;-75
2023/06/16 03:14:52;;;;;;;11.63;8.50;;;;;;;;;;5030261;28;20069;-74
2023/06/16 03:17:21;;;;;;;12.85;8.52;;;;;;;;;;5029202;28;20032;-74
2023/06/16 03:19:48;;;;;;;16.58;10.13;;;;;;;;;;5043422;28;20033;-75
2023/06/16 03:22:15;;;;;;;20.70;16.15;;;;;;;;;;5047610;28;20041;-75
2023/06/16 03:24:43;;;;;;;10.70;9.32;;;;;;;;;;5025070;28;20029;-73
2023/06/16 03:27:09;;;;;;;11.75;10.50;;;;;;;;;;5029596;28;20087;-74
2023/06/16 03:29:36;;;;;;;12.90;11.07;;;;;;;;;;5030134;28;20045;-74
2023/06/16 03:32:02;;;;;;;14.73;10.68;;;;;;;;;;5023404;28;20029;-75
2023/06/16 03:34:29;;;;;;;14.85;10.80;;;;;;;;;;5029460;28;20060;-74
2023/06/16 03:36:56;;;;;;;18.55;12.88;;;;;;;;;;5030641;28;20026;-73
2023/06/16 03:39:22;;;;;;;13.10;11.70;;;;;;;;;;5026315;28;20072;-74
2023/06/16 03:41:48;;;;;;;14.98;10.27;;;;;;;;;;5028985;28;20069;-74
2023/06/16 03:44:14;;;;;;;11.43;9.68;;;;;;;;;;5027510;28;20458;-74
2023/06/16 03:46:40;;;;;;;16.98;13.23;;;;;;;;;;5031463;28;20505;-73
2023/06/16 03:49:09;;;;;;;15.50;13.85;;;;;;;;;;5028693;28;20030;-74
2023/06/16 03:51:35;;;;;;;13.45;12.15;;;;;;;;;;5028527;28;20100;-75
2023/06/16 03:54:01;;;;;;;16.17;13.77;;;;;;;;;;5028832;28;20069;-74
2023/06/16 03:56:27;;;;;;;18.30;14.60;;;;;;;;;;5029723;28;20487;-74
2023/06/16 03:58:55;;;;;;;13.00;11.70;;;;;;;;;;5029045;28;20479;-74
2023/06/16 04:01:22;;;;;;;17.02;11.98;;;;;;;;;;5026249;28;20068;-74
2023/06/16 04:03:49;;;;;;;14.10;12.48;;;;;;;;;;5020723;28;20056;-75
2023/06/16 04:06:15;;;;;;;13.40;12.02;;;;;;;;;;5028470;28;20030;-74
2023/06/16 04:08:41;;;;;;;16.17;12.65;;;;;;;;;;5031262;28;20371;-74
2023/06/16 04:11:08;;;;;;;13.75;12.45;;;;;;;;;;5028713;28;20036;-74
2023/06/16 04:13:34;;;;;;;16.80;13.25;;;;;;;;;;5023790;28;20445;-74
2023/06/16 04:16:00;;;;;;;15.27;13.60;;;;;;;;;;5028633;28;20030;-74
2023/06/16 04:18:26;;;;;;;22.90;14.77;;;;;;;;;;5026243;28;20038;-74
2023/06/16 04:20:52;;;;;;;16.40;14.75;;;;;;;;;;5022702;28;20110;-74
2023/06/16 04:23:18;;;;;;;16.00;13.88;;;;;;;;;;5026036;28;20029;-73
2023/06/16 04:25:44;;;;;;;15.77;13.82;;;;;;;;;;5028759;28;20478;-73
2023/06/16 04:28:13;;;;;;;17.52;14.15;;;;;;;;;;5029664;28;20113;-73
2023/06/16 04:30:43;;;;;;;16.70;14.20;;;;;;;;;;5030032;28;20352;-73
2023/06/16 04:33:09;;;;;;;19.45;14.02;;;;;;;;;;5028628;28;20028;-73
2023/06/16 04:35:39;;;;;;;17.17;13.18;;;;;;;;;;5028057;28;20352;-73
2023/06/16 04:38:06;;;;;;;14.45;12.77;;;;;;;;;;5042846;28;20057;-74
2023/06/16 04:40:32;;;;;;;14.50;12.68;;;;;;;;;;5027397;28;20029;-74
2023/06/16 04:42:58;;;;;;;13.70;12.18;;;;;;;;;;5026397;28;20029;-75
2023/06/16 04:45:24;;;;;;;18.85;14.23;;;;;;;;;;5038998;28;20053;-74
2023/06/16 04:47:51;;;;;;;14.57;12.88;;;;;;;;;;5029610;28;20029;-74
2023/06/16 04:50:17;;;;;;;14.38;12.90;;;;;;;;;;5030716;28;20586;-74
2023/06/16 04:52:46;;;;;;;16.58;13.82;;;;;;;;;;5026409;28;20029;-74
2023/06/16 04:55:14;;;;;;;19.15;13.38;;;;;;;;;;5021470;28;20075;-74
2023/06/16 04:57:41;;;;;;;17.35;13.32;;;;;;;;;;5028533;28;20022;-73
2023/06/16 05:00:09;;;;;;;14.75;13.25;;;;;;;;;;5026171;28;20052;-73
2023/06/16 05:02:35;;;;;;;16.17;14.48;;;;;;;;;;5026979;28;20033;-73
2023/06/16 05:05:03;;;;;;;16.35;14.10;;;;;;;;;;5030095;28;20375;-73
2023/06/16 05:07:29;;;;;;;15.52;13.80;;;;;;;;;;5027553;28;20064;-74
2023/06/16 05:09:55;;;;;;;16.45;13.57;;;;;;;;;;5024819;28;20038;-74
2023/06/16 05:12:21;;;;;;;16.67;14.57;;;;;;;;;;5036353;28;20379;-74
2023/06/16 05:14:47;;;;;;;16.00;14.38;;;;;;;;;;5028689;28;20041;-74
2023/06/16 05:17:13;;;;;;;16.48;14.75;;;;;;;;;;5042607;28;20044;-73
2023/06/16 05:19:39;;;;;;;17.58;14.80;;;;;;;;;;5029739;28;20109;-73
2023/06/16 05:22:05;;;;;;;17.13;15.38;;;;;;;;;;5027203;28;20072;-74
2023/06/16 05:24:31;;;;;;;18.13;15.40;;;;;;;;;;5030060;28;20040;-72
2023/06/16 05:26:58;;;;;;;16.35;14.73;;;;;;;;;;5028007;28;20041;-73
2023/06/16 05:29:24;;;;;;;21.55;16.05;;;;;;;;;;5027152;28;20026;-73
2023/06/16 05:31:50;;;;;;;18.98;14.35;;;;;;;;;;5019998;28;20479;-73
2023/06/16 05:34:16;;;;;;;21.98;16.02;;;;;;;;;;5028343;28;20041;-73
2023/06/16 05:36:42;;;;;;;17.73;15.82;;;;;;;;;;5043327;28;20611;-73
2023/06/16 05:39:12;;;;;;;17.88;16.08;;;;;;;;;;5025458;28;20021;-74
2023/06/16 05:41:39;;;;;;;17.75;15.95;;;;;;;;;;5031179;28;20495;-75
2023/06/16 05:44:07;;;;;;;21.35;16.83;;;;;;;;;;5023728;28;20041;-74
2023/06/16 05:46:33;;;;;;;19.55;17.58;;;;;;;;;;5032199;28;20056;-73
2023/06/16 05:48:59;;;;;;;21.90;15.95;;;;;;;;;;5027225;28;20491;-74
2023/06/16 05:51:25;;;;;;;17.25;15.43;;;;;;;;;;5029032;28;20120;-74
2023/06/16 05:53:51;;;;;;;18.17;16.35;;;;;;;;;;5042294;28;20056;-74
2023/06/16 05:56:17;;;;;;;17.02;15.23;;;;;;;;;;5025876;28;20037;-76
2023/06/16 05:58:43;;;;;;;19.40;16.30;;;;;;;;;;5039259;28;20029;-75
2023/06/16 06:01:11;;;;;;;16.85;15.00;;;;;;;;;;5026573;28;20025;-75
2023/06/16 06:03:37;;;;;;;15.98;14.38;;;;;;;;;;5026796;28;20025;-75
2023/06/16 06:06:03;;;;;;;19.30;16.27;;;;;;;;;;5028422;28;20178;-75
2023/06/16 06:08:30;;;;;;;17.33;15.23;;;;;;;;;;5032141;28;20458;-75
2023/06/16 06:10:56;;;;;;;17.48;15.68;;;;;;;;;;5028734;28;20022;-75
2023/06/16 06:13:22;;;;;;;19.58;15.95;;;;;;;;;;5028490;28;20558;-75
2023/06/16 06:15:48;;;;;;;17.35;14.60;;;;;;;;;;5028354;28;20029;-74
2023/06/16 06:18:16;;;;;;;20.08;15.25;;;;;;;;;;5033578;28;20121;-74
2023/06/16 06:20:43;;;;;;;15.98;14.27;;;;;;;;;;5024503;28;20076;-75
2023/06/16 06:23:09;;;;;;;19.77;13.52;;;;;;;;;;5032911;28;20018;-74
2023/06/16 06:25:35;;;;;;;16.33;12.63;;;;;;;;;;5031257;28;20082;-74
2023/06/16 06:28:03;;;;;;;15.48;13.88;;;;;;;;;;5031491;28;20040;-75
2023/06/16 06:30:29;;;;;;;16.92;12.82;;;;;;;;;;5029145;28;20050;-75
2023/06/16 06:33:00;;;;;;;10.93;9.73;;;;;;;;;;5028361;28;20171;-76
2023/06/16 06:35:26;;;;;;;13.57;9.90;;;;;;;;;;5045181;28;20072;-77
2023/06/16 06:37:52;;;;;;;10.95;9.73;;;;;;;;;;5031506;28;20794;-72
2023/06/16 06:40:18;;;;;;;11.50;9.18;;;;;;;;;;5015398;28;20129;-75
2023/06/16 06:42:44;;;;;;;11.43;8.40;;;;;;;;;;5015266;28;20602;-74
2023/06/16 06:45:11;;;;;;;16.25;9.05;;;;;;;;;;5015732;28;20112;-74
2023/06/16 06:47:37;;;;;;;9.60;8.60;;;;;;;;;;5014412;28;20029;-72
2023/06/16 06:50:04;;;;;;;14.13;9.45;;;;;;;;;;5020253;28;20029;-69
2023/06/16 06:52:30;;;;;;;9.55;8.48;;;;;;;;;;5036374;28;20117;-70
2023/06/16 06:54:56;;;;;;;13.77;8.02;;;;;;;;;;5034936;28;20048;-70
2023/06/16 06:57:22;;;;;;;10.63;7.00;;;;;;;;;;5031531;28;20103;-69
2023/06/16 06:59:48;;;;;;;7.22;6.22;;;;;;;;;;5032077;28;20280;-69
2023/06/16 07:02:15;;;;;;;7.88;6.40;;;;;;;;;;5022797;28;20062;-70
2023/06/16 07:04:42;;;;;;;8.82;5.65;;;;;;;;;;5021781;28;20044;-69
2023/06/16 07:07:10;;;;;;;7.15;6.13;;;;;;;;;;5028904;28;20176;-71
2023/06/16 07:09:36;;;;;;;6.90;4.80;;;;;;;;;;5033627;28;20155;-70
2023/06/16 07:12:02;;;;;;;6.68;5.43;;;;;;;;;;5014102;28;20033;-70
2023/06/16 07:14:32;;;;;;;6.75;4.65;;;;;;;;;;5015247;28;20046;-70
2023/06/16 07:16:58;;;;;;;8.65;6.15;;;;;;;;;;5012736;28;20125;-70
2023/06/16 07:19:27;;;;;;;7.10;5.47;;;;;;;;;;5001001;28;20029;-69
2023/06/16 07:21:58;;;;;;;5.28;4.68;;;;;;;;;;5018926;28;20499;-70
2023/06/16 07:24:24;;;;;;;4.40;3.80;;;;;;;;;;5028473;28;20116;-70
2023/06/16 07:26:50;;;;;;;6.68;4.53;;;;;;;;;;5028690;28;20072;-70
2023/06/16 07:29:17;;;;;;;6.15;4.07;;;;;;;;;;5038866;28;20057;-70
2023/06/16 07:31:43;;;;;;;6.80;4.45;;;;;;;;;;5028564;28;20815;-70
2023/06/16 07:34:09;;;;;;;5.18;4.30;;;;;;;;;;5030256;28;20160;-70
2023/06/16 07:36:37;;;;;;;7.57;4.40;;;27.90;99.90;;;;;;5029736;28;20442;-70
2023/06/16 07:39:03;;;;;;;5.78;4.30;;;;;;;;;;5030071;28;20068;-70
2023/06/16 07:41:29;;;;;;;5.55;4.38;;;;;;;;;;5030321;28;20060;-70
2023/06/16 07:43:55;;;;;;;6.13;4.47;;;;;;;;;;5034869;28;20044;-71
2023/06/16 07:46:21;;;;;;;6.80;4.07;;;;;;;;;;5016118;28;20037;-71
2023/06/16 07:48:47;;;;;;;5.93;4.00;;;;;;;;;;5002114;28;20107;-72
2023/06/16 07:51:13;;;;;;;5.47;4.90;;;;;;;;;;5020075;28;20056;-72
2023/06/16 07:53:41;;;;;;;5.35;4.75;;;;;;;;;;5031222;28;20034;-71
2023/06/16 07:56:07;;;;;;;6.00;4.38;;;;;;;;;;5029327;28;20120;-71
2023/06/16 07:58:35;;;;;;;6.82;3.78;;;;;;;;;;5003976;28;20494;-72
2023/06/16 08:01:01;;;;;;;8.50;3.75;;;;;;;;;;5027532;28;20032;-72
2023/06/16 08:03:27;;;;;;;5.50;3.00;;;;;;;;;;5027806;28;20029;-72
2023/06/16 08:05:54;;;;;;;6.45;3.50;;;29.60;99.90;;;;;;5039877;28;20040;-71
2023/06/16 08:08:21;;;;;;;3.60;2.95;;;;;;;;;;5016295;28;20099;-74
2023/06/16 08:10:46;;;;;;;4.43;3.95;;;29.50;99.90;;;;;;5024759;28;20100;-74
2023/06/16 08:13:12;;;;;;;8.82;3.72;;;;;;;;;;5026102;28;20120;-79
2023/06/16 08:15:38;;;;;;;4.50;3.10;;;29.40;99.90;;;;;;5029341;28;20029;-78
2023/06/16 08:18:04;;;;;;;3.38;3.05;;;29.50;99.90;;;;;;5046974;28;20445;-78
2023/06/16 08:20:32;;;;;;;3.83;3.03;;;29.60;99.90;;;;;;5027450;28;20061;-77
2023/06/16 08:22:58;;;;;;;4.60;3.20;;;29.40;99.90;;;;;;5029127;28;20038;-78
2023/06/16 08:25:23;;;;;;;5.22;3.03;;;29.20;99.90;;;;;;5027455;28;20049;-77
2023/06/16 08:27:49;;;;;;;4.25;2.95;;;29.00;99.90;;;;;;5030573;28;20045;-77
2023/06/16 08:30:15;;;;;;;6.13;3.00;;;29.30;99.90;;;;;;5031676;28;20069;-79
2023/06/16 08:32:41;;;;;;;4.82;3.08;;;29.10;99.90;;;;;;5028044;28;20120;-78
2023/06/16 08:35:07;;;;;;;5.50;2.60;;;29.20;99.90;;;;;;5028845;28;20112;-78
2023/06/16 08:37:33;;;;;;;4.65;2.92;;;29.10;99.90;;;;;;5012193;28;20041;-78
2023/06/16 08:39:58;;;;;;;5.47;2.90;;;29.50;99.90;;;;;;5027530;28;20030;-78
2023/06/16 08:42:24;;;;;;;6.70;2.75;;;29.50;99.90;;;;;;5027070;28;20051;-78
2023/06/16 08:44:53;;;;;;;3.95;2.65;;;;;;;;;;5025137;28;20077;-78
2023/06/16 08:47:19;;;;;;;9.15;2.78;;;29.20;99.90;;;;;;5020114;28;20356;-77
2023/06/16 08:49:46;;;;;;;6.20;2.40;;;;;;;;;;5031781;28;20041;-78
2023/06/16 08:52:13;;;;;;;2.40;2.20;;;;;;;;;;5030014;28;20423;-79
2023/06/16 08:54:47;;;;;;;7.50;2.25;;;;;;;;;;5046779;28;20033;-79
2023/06/16 08:57:14;;;;;;;11.10;2.35;;;;;;;;;;5033014;28;20026;-79
2023/06/16 08:59:40;;;;;;;11.27;2.33;;;;;;;;;;5028447;28;20053;-78
2023/06/16 09:02:07;;;;;;;3.38;1.65;;;;;;;;;;5029066;28;20359;-79
2023/06/16 09:04:34;;;;;;;3.25;1.58;;;;;;;;;;5025962;28;20045;-79
2023/06/16 09:07:00;;;;;;;1.85;1.52;;;;;;;;;;5029293;28;20060;-79
2023/06/16 09:09:26;;;;;;;4.55;1.77;;;;;;;;;;5039918;28;20056;-78
2023/06/16 09:12:24;;;;;;;2.83;1.63;;;29.50;99.90;;;;;;5019982;28;20735;-78
2023/06/16 09:14:50;;;;;;;6.30;1.95;;;29.80;99.90;;;;;;5003597;28;20049;-78
2023/06/16 09:17:24;;;;;;;3.10;2.03;;;29.80;99.90;;;;;;5024520;28;20117;-78
2023/06/16 09:19:52;;;;;;;3.95;1.83;;;;;;;;;;5019516;28;20022;-78
2023/06/16 09:22:20;;;;;;;24.00;2.47;;;;;;;;;;5011665;28;20521;-78
2023/06/16 09:25:05;;;;;;;2.72;1.58;;;29.70;99.90;;;;;;5019286;28;20410;-78
2023/06/16 09:27:46;;;;;;;9.23;1.77;;;;;;;;;;5021672;28;20577;-79
2023/06/16 09:30:18;;;;;;;3.72;1.70;;;29.40;99.90;;;;;;5021686;28;20026;-80
2023/06/16 09:32:45;;;;;;;2.17;1.33;;;29.30;99.90;;;;;;5027300;28;20045;-78
2023/06/16 09:35:31;;;;;;;2.17;1.55;;;29.60;99.90;;;;;;5026440;28;20395;-79
2023/06/16 09:37:59;;;;;;;4.63;1.75;;;29.40;99.90;;;;;;5029862;28;20057;-78
2023/06/16 09:40:26;;;;;;;2.97;1.95;;;;;;;;;;5045193;28;20048;-77
2023/06/16 09:42:52;;;;;;;2.72;1.65;;;29.30;99.90;;;;;;5026703;28;20021;-78
2023/06/16 09:45:21;;;;;;;4.38;1.98;;;29.40;99.90;;;;;;5015391;28;20066;-78
2023/06/16 09:47:49;;;;;;;3.25;1.48;;;29.50;99.90;;;;;;5031725;28;20045;-78
2023/06/16 09:50:16;;;;;;;2.08;1.50;;;;;;;;;;5031815;28;20029;-79
2023/06/16 09:52:46;;;;;;;5.70;1.90;;;;;;;;;;5033563;28;20034;-78
2023/06/16 09:55:12;;;;;;;1.58;1.48;;;;;;;;;;5046051;28;20514;-79
2023/06/16 09:57:39;;;;;;;3.35;1.70;;;;;;;;;;5030818;28;20041;-79
2023/06/16 10:00:13;;;;;;;3.15;1.95;;;;;;;;;;5040172;28;20037;-77
2023/06/16 10:02:41;;;;;;;2.75;1.60;;;;;;;;;;5025440;28;20103;-78
2023/06/16 10:05:09;;;;;;;2.60;1.52;;;;;;;;;;5031041;28;20184;-79
2023/06/16 10:07:36;;;;;;;2.22;1.63;;;;;;;;;;5047089;28;20040;-78
2023/06/16 10:10:04;;;;;;;5.80;2.13;;;;;;;;;;5022262;28;20034;-72
2023/06/16 10:12:32;;;;;;;7.63;2.40;;;;;;;;;;5030800;28;20033;-72
2023/06/16 10:15:00;;;;;;;2.72;1.65;;;;;;;;;;5027667;28;20082;-72
2023/06/16 10:17:28;;;;;;;6.13;1.35;;;;;;;;;;5036658;28;20113;-72
2023/06/16 10:19:55;;;;;;;2.55;1.55;;;30.00;99.90;;;;;;5027376;28;20029;-75
2023/06/16 10:22:21;;;;;;;1.92;1.15;;;30.10;99.90;;;;;;5027998;28;20053;-76
2023/06/16 10:24:47;;;;;;;4.55;1.70;;;30.10;99.90;;;;;;5012613;28;20116;-77
2023/06/16 10:27:13;;;;;;;3.15;1.52;;;30.00;99.90;;;;;;5029889;28;20456;-76
2023/06/16 10:29:40;;;;;;;9.25;1.85;;;29.50;99.90;;;;;;5033676;28;20104;-76
2023/06/16 10:32:07;;;;;;;1.92;1.25;;;29.30;99.90;;;;;;5031017;28;20036;-78
2023/06/16 10:34:49;;;;;;;3.10;1.65;;;;;;;;;;5040000;28;20029;-78
2023/06/16 10:37:18;;;;;;;;;;;;;;;;;;5036363;28;20021;-74
2023/06/16 10:39:45;;;;;;;2.80;1.45;;;;;;;;;;5027291;28;19917;-75
2023/06/16 10:42:12;;;;;;;1.90;1.60;;;;;;;;;;5030511;28;20030;-74
2023/06/16 10:44:39;;;;;;;3.38;1.50;;;;;;;;;;5024771;28;20048;-74
2023/06/16 10:47:05;;;;;;;3.95;2.35;;;;;;;;;;5031820;28;20033;-75
2023/06/16 10:49:31;;;;;;;1.98;1.48;;;;;;;;;;5029075;28;20064;-76
2023/06/16 10:51:59;;;;;;;4.50;1.63;;;;;;;;;;5031848;28;20419;-75
2023/06/16 10:54:36;;;;;;;8.13;2.05;;;;;;;;;;5027991;28;20049;-75
2023/06/16 10:57:04;;;;;;;8.43;4.97;;;;;;;;;;5030048;28;20497;-73
2023/06/16 10:59:30;;;;;;;7.40;2.28;;;;;;;;;;5028932;28;20546;-77
2023/06/16 11:01:57;;;;;;;3.25;1.73;;;;;;;;;;5025408;28;20044;-76
2023/06/16 11:04:24;;;;;;;3.58;2.05;;;;;;;;;;5024382;28;20487;-77
2023/06/16 11:07:07;;;;;;;3.05;1.52;;;;;;;;;;5030635;28;20034;-77
2023/06/16 11:09:35;;;;;;;2.15;1.30;;;;;;;;;;5028435;28;20041;-76
2023/06/16 11:12:03;;;;;;;6.38;1.70;;;;;;;;;;5044537;28;20037;-74
2023/06/16 11:14:29;;;;;;;4.47;1.80;;;;;;;;;;5026567;28;20108;-75
2023/06/16 11:16:55;;;;;;;4.93;1.80;;;29.40;99.90;;;;;;5026777;28;20044;-75
2023/06/16 11:19:22;;;;;;;7.75;5.03;;;29.20;99.90;;;;;;5036753;28;20041;-73
2023/06/16 11:21:48;;;;;;;4.72;2.67;;;29.30;99.90;;;;;;5027257;28;20038;-76
2023/06/16 11:24:14;;;;;;;2.13;1.70;;;;;;;;;;5026048;28;20103;-74
2023/06/16 11:26:41;;;;;;;5.13;1.60;;;29.30;99.90;;;;;;5027955;28;20525;-81
2023/06/16 11:29:07;;;;;;;4.10;1.83;;;;;;;;;;5028491;28;20037;-80
2023/06/16 11:31:37;;;;;;;2.08;1.55;;;29.00;99.90;;;;;;5029451;28;20028;-78
2023/06/16 11:34:03;;;;;;;9.63;1.73;;;28.90;99.90;;;;;;5031179;28;20060;-81
2023/06/16 11:36:30;;;;;;;4.18;1.48;;;28.70;99.90;;;;;;5040050;28;20485;-81
2023/06/16 11:38:56;;;;;;;6.78;2.22;;;28.50;99.90;;;;;;5031025;28;20037;-81
2023/06/16 11:41:32;;;;;;;3.45;2.22;;;28.40;99.90;;;;;;5034572;28;20398;-81
2023/06/16 11:43:58;;;;;;;4.70;1.90;;;;;;;;;;5035201;28;20026;-81
2023/06/16 11:46:26;;;;;;;3.03;2.03;;;28.50;99.90;;;;;;5023794;28;20049;-77
2023/06/16 11:48:52;;;;;;;4.82;1.83;;;;;;;;;;5030259;28;20423;-79
2023/06/16 11:51:19;;;;;;;7.28;2.50;;;28.50;99.90;;;;;;5025126;28;20421;-76
2023/06/16 11:53:45;;;;;;;4.55;2.92;;;;;;;;;;5042723;28;20025;-78
2023/06/16 11:56:15;;;;;;;14.27;1.90;;;28.50;99.90;;;;;;5027801;28;20037;-80
2023/06/16 11:58:44;;;;;;;3.28;1.83;;;28.70;99.90;;;;;;5030106;28;20060;-78
2023/06/16 12:01:14;;;;;;;5.10;1.70;;;28.90;99.90;;;;;;5020575;28;20034;-78
2023/06/16 12:03:40;;;;;;;2.70;1.80;;;;;;;;;;5025630;28;20041;-78
2023/06/16 12:06:06;;;;;;;2.03;1.48;;;;;;;;;;5030261;28;20029;-79
2023/06/16 12:08:46;;;;;;;2.75;1.85;;;28.60;99.90;;;;;;5044094;28;20124;-78
2023/06/16 12:11:33;;;;;;;1.77;1.67;;;28.60;99.90;;;;;;5013375;28;20033;-78
2023/06/16 12:14:00;;;;;;;2.00;1.40;;;28.70;99.90;;;;;;5026210;28;20041;-78
2023/06/16 12:16:26;;;;;;;2.20;1.80;;;29.00;99.90;;;;;;5030623;28;20037;-78
2023/06/16 12:18:52;;;;;;;5.10;1.77;;;29.10;99.90;;;;;;5045353;28;20572;-77
2023/06/16 12:21:23;;;;;;;4.30;1.80;;;29.00;99.90;;;;;;5027359;28;20061;-78
2023/06/16 12:23:51;;;;;;;3.30;1.55;;;29.00;99.90;;;;;;5030042;28;20021;-77
2023/06/16 12:26:37;;;;;;;2.58;1.45;;;;;;;;;;5030948;28;20124;-78
2023/06/16 12:29:09;;;;;;;4.30;1.90;;;;;;;;;;5035219;28;20317;-78
2023/06/16 12:31:35;;;;;;;3.47;2.95;;;;;;;;;;5037164;28;20403;-77
2023/06/16 12:34:04;;;;;;;4.10;2.08;;;;;;;;;;5032700;28;20025;-76
2023/06/16 12:36:32;;;;;;;1.73;1.63;;;;;;;;;;5017347;28;20469;-79
2023/06/16 12:38:59;;;;;;;2.08;1.50;;;;;;;;;;5028149;28;20494;-80
2023/06/16 12:41:28;;;;;;;5.43;1.75;;;;;;;;;;5016730;28;20510;-81
2023/06/16 12:43:55;;;;;;;2.20;1.60;;;;;;;;;;5022813;28;20136;-78
2023/06/16 12:46:21;;;;;;;2.42;1.77;;;;;;;;;;5035822;28;20613;-80
2023/06/16 12:48:47;;;;;;;4.07;1.60;;;;;;;;;;5020339;28;20044;-79
2023/06/16 12:51:17;;;;;;;3.38;1.52;;;;;;;;;;5017998;28;20132;-77
2023/06/16 12:53:44;;;;;;;4.20;1.67;;;;;;;;;;5019333;28;20075;-77
2023/06/16 12:56:12;;;;;;;2.83;2.20;;;;;;;;;;5028350;28;20207;-78
2023/06/16 12:58:41;;;;;;;4.85;1.73;;;;;;;;;;5042056;28;20107;-78
2023/06/16 13:01:08;;;;;;;1.40;1.30;;;;;;;;;;5043986;28;20041;-78
2023/06/16 13:03:34;;;;;;;5.97;1.88;;;;;;;;;;5030027;28;20025;-77
2023/06/16 13:06:02;;;;;;;7.22;1.50;;;;;;;;;;5045659;28;20050;-78
2023/06/16 13:08:28;;;;;;;2.20;1.70;;;;;;;;;;5027368;28;20076;-78
2023/06/16 13:10:54;;;;;;;2.42;1.90;;;;;;;;;;5024343;28;20030;-78
2023/06/16 13:13:20;;;;;;;3.60;1.60;;;;;;;;;;5026963;28;20026;-78
2023/06/16 13:15:46;;;;;;;1.75;1.45;;;;;;;;;;5028740;28;20044;-78
2023/06/16 13:18:12;;;;;;;5.22;1.60;;;;;;;;;;5027460;28;20496;-77
2023/06/16 13:20:39;;;;;;;4.80;1.50;;;;;;;;;;5026991;28;20235;-76
2023/06/16 13:23:05;;;;;;;3.05;1.50;;;;;;;;;;5023206;28;20360;-77
2023/06/16 13:25:31;;;;;;;2.80;1.73;;;;;;;;;;5040110;28;20037;-79
2023/06/16 13:27:57;;;;;;;2.92;1.65;;;;;;;;;;5027141;28;20052;-78
2023/06/16 13:30:23;;;;;;;5.40;1.73;;;;;;;;;;5025219;28;20042;-79
2023/06/16 13:32:49;;;;;;;3.13;1.70;;;;;;;;;;5025777;28;20029;-80
2023/06/16 13:35:15;;;;;;;2.90;1.92;;;;;;;;;;5013555;28;20459;-76
2023/06/16 13:37:41;;;;;;;1.80;1.40;;;;;;;;;;5029074;28;20394;-76
2023/06/16 13:40:08;;;;;;;2.63;1.50;;;;;;;;;;5027677;28;20033;-75
2023/06/16 13:42:34;;;;;;;4.75;1.60;;;;;;;;;;5025325;28;20034;-75
2023/06/16 13:45:00;;;;;;;5.68;1.92;;;;;;;;;;5028700;28;20149;-77
2023/06/16 13:47:26;;;;;;;3.47;2.00;;;;;;;;;;5030755;28;20041;-77
2023/06/16 13:49:52;;;;;;;2.80;1.85;;;;;;;;;;5027240;28;20072;-76
2023/06/16 13:52:18;;;;;;;9.52;2.15;;;28.00;99.90;;;;;;5028009;28;20030;-77
2023/06/16 13:54:44;;;;;;;9.35;2.00;;;;;;;;;;5048160;28;20053;-78
2023/06/16 13:57:11;;;;;;;3.28;1.38;;;;;;;;;;5034222;28;20305;-78
2023/06/16 13:59:37;;;;;;;8.30;1.75;;;;;;;;;;5038457;28;20124;-78
2023/06/16 14:02:03;;;;;;;1.98;1.42;;;;;;;;;;5032830;28;20033;-80
2023/06/16 14:04:29;;;;;;;2.88;1.65;;;;;;;;;;5032924;28;20487;-78
2023/06/16 14:06:56;;;;;;;6.15;1.70;;;;;;;;;;5033035;28;20077;-71
2023/06/16 14:09:22;;;;;;;39.88;30.42;;;;;;;;;;5026050;28;20033;-81
2023/06/16 14:11:48;;;;;;;6.60;2.53;;;27.50;99.90;;;;;;5027870;28;20029;-80
2023/06/16 14:14:14;;;;;;;3.35;1.85;;;;;;;;;;5027421;28;20036;-79
2023/06/16 14:16:40;;;;;;;4.65;1.98;;;;;;;;;;5033258;28;20041;-79